Time;durP1;ratioP1;P1;durP2;ratioP2;P2;SDS_P1;SDS_P2;PMS_P1;PMS_P2;Temp;Humidity;BMP_temperature;BMP_pressure;BME280_temperature;BME280_humidity;BME280_pressure;Samples;Min_cycle;Max_cycle;Signal;HPM_P1;HPM_P2
2021/04/28 00:02:25;;;;;;;4.00;1.70;;;6.10;99.90;;;;;;6154778;23;20040;-85
2021/04/28 00:04:51;;;;;;;3.60;1.85;;;6.00;99.90;;;;;;6131729;23;20013;-85
2021/04/28 00:07:17;;;;;;;5.10;1.58;;;6.00;99.90;;;;;;6132143;23;20096;-85
2021/04/28 00:09:42;;;;;;;12.40;1.70;;;6.00;99.90;;;;;;6131027;23;20013;-85
2021/04/28 00:12:09;;;;;;;7.05;1.73;;;5.90;99.90;;;;;;6156303;23;20036;-85
2021/04/28 00:14:35;;;;;;;2.28;2.08;;;5.90;99.90;;;;;;6181885;23;20052;-85
2021/04/28 00:17:02;;;;;;;2.45;1.70;;;6.00;99.90;;;;;;6156230;23;20017;-85
2021/04/28 00:19:28;;;;;;;8.27;1.63;;;5.80;99.90;;;;;;6181814;23;20017;-85
2021/04/28 00:21:55;;;;;;;6.75;2.30;;;5.80;99.90;;;;;;6182653;23;20048;-85
2021/04/28 00:24:21;;;;;;;3.55;1.77;;;5.70;99.90;;;;;;6156153;23;20546;-85
2021/04/28 00:26:47;;;;;;;1.88;1.50;;;5.80;99.90;;;;;;6181813;23;20025;-86
2021/04/28 00:29:13;;;;;;;1.98;1.67;;;5.80;99.90;;;;;;6131831;23;20049;-86
2021/04/28 00:31:39;;;;;;;2.88;1.73;;;5.70;99.90;;;;;;6156947;23;20335;-85
2021/04/28 00:34:05;;;;;;;3.80;1.77;;;5.70;99.90;;;;;;6182043;23;20029;-85
2021/04/28 00:36:30;;;;;;;2.13;1.60;;;5.70;99.90;;;;;;6155482;23;20112;-85
2021/04/28 00:38:56;;;;;;;1.52;1.42;;;5.80;99.90;;;;;;6132034;23;20044;-85
2021/04/28 00:41:23;;;;;;;2.58;2.38;;;5.70;99.90;;;;;;6182502;23;20055;-85
2021/04/28 00:43:49;;;;;;;2.08;1.48;;;5.70;99.90;;;;;;6181560;23;20028;-85
2021/04/28 00:46:14;;;;;;;10.95;1.77;;;5.70;99.90;;;;;;6132130;23;20028;-85
2021/04/28 00:48:40;;;;;;;5.15;1.42;;;5.70;99.90;;;;;;6181089;23;20035;-84
2021/04/28 00:51:07;;;;;;;4.22;2.47;;;5.60;99.90;;;;;;6182401;23;20032;-85
2021/04/28 00:53:33;;;;;;;7.88;1.80;;;5.60;99.90;;;;;;6155300;23;20364;-84
2021/04/28 00:55:59;;;;;;;2.88;2.00;;;5.60;99.90;;;;;;6156163;23;20017;-86
2021/04/28 00:58:26;;;;;;;1.83;1.73;;;5.60;99.90;;;;;;6182020;23;20016;-86
2021/04/28 01:00:52;;;;;;;1.50;1.33;;;5.60;99.90;;;;;;6131181;23;20017;-85
2021/04/28 01:03:23;;;;;;;3.97;1.80;;;5.60;99.90;;;;;;6155934;23;20095;-85
2021/04/28 01:05:55;;;;;;;4.80;2.25;;;5.60;99.90;;;;;;6181138;23;20465;-86
2021/04/28 01:08:22;;;;;;;2.03;1.80;;;5.50;99.90;;;;;;6192148;23;20021;-86
2021/04/28 01:10:49;;;;;;;4.20;1.77;;;5.50;99.90;;;;;;6181001;23;20276;-85
2021/04/28 01:13:17;;;;;;;5.88;1.88;;;5.50;99.90;;;;;;6181316;23;20398;-85
2021/04/28 01:15:43;;;;;;;4.00;1.70;;;5.50;99.90;;;;;;6181034;23;20013;-85
2021/04/28 01:18:09;;;;;;;5.55;1.67;;;5.50;99.90;;;;;;6182127;23;20466;-85
2021/04/28 01:20:39;;;;;;;2.42;1.80;;;5.50;99.90;;;;;;6154953;23;20017;-86
2021/04/28 01:23:08;;;;;;;2.13;1.70;;;5.60;99.90;;;;;;6192094;23;20024;-86
2021/04/28 01:25:34;;;;;;;6.90;2.55;;;5.50;99.90;;;;;;6181420;23;20181;-85
2021/04/28 01:28:10;;;;;;;2.65;1.90;;;5.50;99.90;;;;;;6155982;23;20083;-86
2021/04/28 01:30:50;;;;;;;2.70;2.03;;;5.50;99.90;;;;;;6190803;23;20032;-86
2021/04/28 01:33:50;;;;;;;5.18;1.80;;;5.40;99.90;;;;;;6158851;23;20021;-86
2021/04/28 01:36:20;;;;;;;4.68;2.05;;;5.50;99.90;;;;;;6165375;23;20031;-85
2021/04/28 01:38:49;;;;;;;3.33;1.75;;;5.50;99.90;;;;;;6154930;23;20017;-86
2021/04/28 01:41:16;;;;;;;2.95;2.08;;;5.50;99.90;;;;;;6181451;23;20017;-86
2021/04/28 01:43:43;;;;;;;2.35;1.67;;;5.50;99.90;;;;;;6181136;23;20047;-86
2021/04/28 01:46:09;;;;;;;10.63;1.92;;;5.50;99.90;;;;;;6155647;23;20100;-86
2021/04/28 01:48:37;;;;;;;1.65;1.55;;;5.40;99.90;;;;;;6183653;23;20057;-86
2021/04/28 01:51:04;;;;;;;3.00;1.58;;;5.30;99.90;;;;;;6181863;23;20024;-86
2021/04/28 01:53:31;;;;;;;2.33;1.73;;;5.40;99.90;;;;;;6155395;23;20615;-85
2021/04/28 01:55:59;;;;;;;1.80;1.70;;;5.40;99.90;;;;;;6155757;23;20024;-86
2021/04/28 01:58:27;;;;;;;2.75;1.83;;;5.40;99.90;;;;;;6155625;23;20025;-86
2021/04/28 02:00:54;;;;;;;5.93;2.22;;;5.40;99.90;;;;;;6154462;23;20750;-86
2021/04/28 02:03:25;;;;;;;4.25;1.75;;;5.40;99.90;;;;;;6154992;23;20344;-85
2021/04/28 02:05:52;;;;;;;5.18;2.00;;;5.40;99.90;;;;;;6180805;23;20017;-85
2021/04/28 02:08:19;;;;;;;4.47;1.83;;;5.40;99.90;;;;;;6181399;23;20017;-85
2021/04/28 02:10:46;;;;;;;2.08;1.88;;;5.40;99.90;;;;;;6180588;23;20025;-85
2021/04/28 02:13:15;;;;;;;3.25;1.65;;;5.40;99.90;;;;;;6155455;23;20729;-86
2021/04/28 02:15:43;;;;;;;1.88;1.75;;;5.40;99.90;;;;;;6180164;23;20044;-86
2021/04/28 02:18:09;;;;;;;2.88;1.95;;;5.40;99.90;;;;;;6155260;23;20043;-85
2021/04/28 02:20:37;;;;;;;3.03;2.17;;;5.40;99.90;;;;;;6154544;23;20024;-85
2021/04/28 02:23:04;;;;;;;5.03;2.88;;;5.40;99.90;;;;;;6181295;23;20045;-85
2021/04/28 02:25:30;;;;;;;3.22;2.15;;;5.40;99.90;;;;;;6155097;23;20092;-85
2021/04/28 02:27:56;;;;;;;4.57;2.08;;;5.30;99.90;;;;;;6154132;23;20078;-85
2021/04/28 02:30:24;;;;;;;5.35;1.88;;;5.40;99.90;;;;;;6181759;23;20328;-85
2021/04/28 02:32:51;;;;;;;2.42;2.10;;;5.30;99.90;;;;;;6180402;23;20027;-85
2021/04/28 02:35:19;;;;;;;3.78;1.90;;;5.20;99.90;;;;;;6180897;23;20382;-85
2021/04/28 02:37:48;;;;;;;10.32;1.75;;;5.30;99.90;;;;;;6180290;23;20025;-85
2021/04/28 02:40:16;;;;;;;4.55;1.95;;;5.20;99.90;;;;;;6155175;23;20032;-85
2021/04/28 02:42:44;;;;;;;4.53;2.05;;;5.20;99.90;;;;;;6154395;23;20024;-85
2021/04/28 02:45:13;;;;;;;4.35;2.28;;;5.30;99.90;;;;;;6181427;23;20017;-85
2021/04/28 02:47:40;;;;;;;3.47;2.10;;;5.20;99.90;;;;;;6181399;23;20102;-84
2021/04/28 02:50:09;;;;;;;2.70;1.90;;;5.20;99.90;;;;;;6180654;23;20024;-85
2021/04/28 02:52:36;;;;;;;4.45;2.03;;;5.20;99.90;;;;;;6180849;23;20040;-84
2021/04/28 02:55:02;;;;;;;3.10;2.08;;;5.30;99.90;;;;;;6180498;23;20048;-85
2021/04/28 02:57:28;;;;;;;7.38;2.33;;;5.20;99.90;;;;;;6181292;23;20038;-84
2021/04/28 02:59:55;;;;;;;2.03;1.83;;;5.20;99.90;;;;;;6154110;23;20105;-84
2021/04/28 03:02:21;;;;;;;6.00;1.98;;;5.20;99.90;;;;;;6155470;23;20356;-85
2021/04/28 03:04:48;;;;;;;4.75;1.88;;;5.20;99.90;;;;;;6180250;23;20017;-85
2021/04/28 03:07:15;;;;;;;3.72;2.42;;;5.30;99.90;;;;;;6179573;23;20096;-84
2021/04/28 03:09:43;;;;;;;2.95;1.73;;;5.30;99.90;;;;;;6178570;23;20025;-83
2021/04/28 03:12:11;;;;;;;6.63;1.60;;;5.20;99.90;;;;;;6180799;23;20021;-84
2021/04/28 03:14:37;;;;;;;2.00;1.80;;;5.20;99.90;;;;;;6180512;23;20040;-84
2021/04/28 03:17:03;;;;;;;2.67;1.85;;;5.30;99.90;;;;;;6180756;23;20021;-83
2021/04/28 03:19:30;;;;;;;13.07;2.08;;;5.30;99.90;;;;;;6154619;23;20087;-84
2021/04/28 03:21:56;;;;;;;3.72;1.80;;;5.20;99.90;;;;;;6180375;23;20602;-83
2021/04/28 03:24:22;;;;;;;6.80;2.05;;;5.20;99.90;;;;;;6154821;23;20048;-84
2021/04/28 03:26:55;;;;;;;5.13;1.75;;;5.20;99.90;;;;;;6153677;23;20021;-84
2021/04/28 03:29:21;;;;;;;2.58;1.80;;;5.10;99.90;;;;;;6180545;23;20072;-85
2021/04/28 03:31:47;;;;;;;5.75;2.58;;;5.00;99.90;;;;;;6179922;23;20021;-83
2021/04/28 03:34:13;;;;;;;6.15;2.05;;;5.10;99.90;;;;;;6180778;23;20087;-83
2021/04/28 03:36:39;;;;;;;3.38;2.00;;;5.10;99.90;;;;;;6156132;23;20088;-83
2021/04/28 03:39:05;;;;;;;7.45;1.90;;;5.00;99.90;;;;;;6182293;23;20025;-83
2021/04/28 03:41:31;;;;;;;4.43;2.30;;;5.00;99.90;;;;;;6156610;23;20040;-83
2021/04/28 03:43:57;;;;;;;4.63;2.60;;;4.90;99.90;;;;;;6155493;23;20501;-83
2021/04/28 03:46:23;;;;;;;6.18;2.60;;;4.90;99.90;;;;;;6156350;23;20459;-83
2021/04/28 03:48:49;;;;;;;4.55;2.35;;;4.90;99.90;;;;;;6181926;23;20518;-83
2021/04/28 03:51:15;;;;;;;8.27;2.35;;;4.80;99.90;;;;;;6192715;23;20021;-83
2021/04/28 03:53:41;;;;;;;6.53;2.63;;;4.80;99.90;;;;;;6156101;23;20023;-83
2021/04/28 03:56:07;;;;;;;6.65;2.45;;;4.70;99.90;;;;;;6182928;23;20017;-84
2021/04/28 03:58:33;;;;;;;7.00;2.22;;;4.70;99.90;;;;;;6182814;23;20398;-84
2021/04/28 04:00:59;;;;;;;3.35;2.00;;;4.70;99.90;;;;;;6181841;23;20567;-84
2021/04/28 04:03:25;;;;;;;5.97;2.45;;;4.80;99.90;;;;;;6182789;23;20024;-84
2021/04/28 04:05:51;;;;;;;7.35;2.40;;;4.70;99.90;;;;;;6181626;23;20013;-83
2021/04/28 04:08:17;;;;;;;2.58;2.38;;;4.70;99.90;;;;;;6182736;23;20518;-84
2021/04/28 04:10:43;;;;;;;3.78;2.65;;;4.70;99.90;;;;;;6156039;23;20060;-84
2021/04/28 04:13:09;;;;;;;3.78;2.75;;;4.60;99.90;;;;;;6182804;23;20343;-84
2021/04/28 04:15:35;;;;;;;4.88;2.50;;;4.60;99.90;;;;;;6156412;23;20096;-84
2021/04/28 04:18:01;;;;;;;5.45;2.60;;;4.60;99.90;;;;;;6155427;23;20623;-84
2021/04/28 04:20:26;;;;;;;4.03;2.50;;;4.60;99.90;;;;;;6132328;23;20017;-85
2021/04/28 04:22:52;;;;;;;2.95;2.65;;;4.50;99.90;;;;;;6155235;23;20025;-84
2021/04/28 04:25:18;;;;;;;7.90;2.45;;;4.60;99.90;;;;;;6182754;23;20013;-84
2021/04/28 04:27:44;;;;;;;3.58;2.00;;;4.60;99.90;;;;;;6181860;23;20028;-84
2021/04/28 04:30:11;;;;;;;4.03;2.15;;;4.60;99.90;;;;;;6132055;23;20017;-84
2021/04/28 04:32:37;;;;;;;5.43;2.60;;;4.60;99.90;;;;;;6182630;23;20045;-84
2021/04/28 04:35:07;;;;;;;10.85;2.50;;;4.60;99.90;;;;;;6181390;23;20017;-84
2021/04/28 04:37:34;;;;;;;7.10;2.78;;;4.60;99.90;;;;;;6182237;23;20052;-84
2021/04/28 04:40:00;;;;;;;3.50;2.30;;;4.50;99.90;;;;;;6181432;23;20079;-84
2021/04/28 04:42:26;;;;;;;4.90;2.80;;;4.60;99.90;;;;;;6156650;23;20443;-84
2021/04/28 04:44:52;;;;;;;3.30;2.60;;;4.60;99.90;;;;;;6181382;23;20028;-84
2021/04/28 04:47:18;;;;;;;8.27;2.90;;;4.60;99.90;;;;;;6182064;23;20430;-84
2021/04/28 04:49:44;;;;;;;5.25;2.17;;;4.60;99.90;;;;;;6182231;23;20028;-84
2021/04/28 04:52:12;;;;;;;3.50;2.35;;;4.60;99.90;;;;;;6181477;23;20044;-84
2021/04/28 04:54:38;;;;;;;10.30;2.40;;;4.70;99.90;;;;;;6182311;23;20505;-84
2021/04/28 04:57:04;;;;;;;6.18;2.25;;;4.70;99.90;;;;;;6180991;23;20032;-84
2021/04/28 04:59:30;;;;;;;3.75;2.33;;;4.70;99.90;;;;;;6156759;23;20463;-85
2021/04/28 05:01:56;;;;;;;4.43;2.33;;;4.70;99.90;;;;;;6154699;23;20028;-84
2021/04/28 05:04:22;;;;;;;9.00;2.85;;;4.70;99.90;;;;;;6182459;23;20028;-84
2021/04/28 05:06:47;;;;;;;2.45;2.25;;;4.80;99.90;;;;;;6181581;23;20017;-83
2021/04/28 05:09:13;;;;;;;4.90;2.40;;;4.90;99.90;;;;;;6182038;23;20131;-84
2021/04/28 05:11:39;;;;;;;3.25;2.40;;;4.90;99.90;;;;;;6182171;23;20079;-83
2021/04/28 05:14:05;;;;;;;8.45;2.95;;;5.00;99.90;;;;;;6181269;23;20649;-83
2021/04/28 05:16:34;;;;;;;11.73;2.65;;;5.00;99.90;;;;;;6156247;23;20016;-83
2021/04/28 05:19:00;;;;;;;3.97;2.30;;;5.00;99.90;;;;;;6181483;23;20513;-83
2021/04/28 05:21:26;;;;;;;5.45;2.20;;;5.10;99.90;;;;;;6182560;23;20014;-86
2021/04/28 05:23:52;;;;;;;3.28;2.25;;;5.10;99.90;;;;;;6155307;23;20020;-84
2021/04/28 05:26:17;;;;;;;10.00;2.20;;;5.20;99.90;;;;;;6155772;23;20017;-84
2021/04/28 05:28:44;;;;;;;4.57;2.22;;;5.10;99.90;;;;;;6182428;23;20028;-85
2021/04/28 05:31:10;;;;;;;3.28;2.70;;;5.30;99.90;;;;;;6154798;23;20088;-84
2021/04/28 05:33:36;;;;;;;6.82;2.83;;;5.30;99.90;;;;;;6155767;23;20414;-83
2021/04/28 05:36:03;;;;;;;4.30;2.63;;;5.40;99.90;;;;;;6180743;23;20036;-83
2021/04/28 05:38:29;;;;;;;3.63;2.40;;;5.40;99.90;;;;;;6155599;23;20025;-83
2021/04/28 05:40:55;;;;;;;5.78;2.50;;;5.40;99.90;;;;;;6154786;23;20017;-83
2021/04/28 05:43:21;;;;;;;6.28;2.55;;;5.50;99.90;;;;;;6155789;23;20151;-83
2021/04/28 05:45:47;;;;;;;14.52;2.33;;;5.60;99.90;;;;;;6182209;23;20458;-84
2021/04/28 05:48:15;;;;;;;5.20;2.50;;;5.60;99.90;;;;;;6180961;23;20020;-83
2021/04/28 05:50:42;;;;;;;4.80;2.40;;;5.50;99.90;;;;;;6181785;23;20079;-83
2021/04/28 05:53:09;;;;;;;7.28;2.80;;;5.70;99.90;;;;;;6180955;23;20869;-83
2021/04/28 05:55:36;;;;;;;4.68;2.80;;;5.70;99.90;;;;;;6181383;23;20316;-83
2021/04/28 05:58:03;;;;;;;3.65;2.65;;;5.70;99.90;;;;;;6153832;23;20021;-83
2021/04/28 06:00:30;;;;;;;6.82;2.83;;;5.70;99.90;;;;;;6181478;23;20092;-83
2021/04/28 06:02:56;;;;;;;4.10;2.72;;;5.80;99.90;;;;;;6180062;23;20021;-83
2021/04/28 06:05:22;;;;;;;6.72;2.78;;;5.60;99.90;;;;;;6181280;23;20013;-84
2021/04/28 06:07:48;;;;;;;4.25;2.45;;;5.80;99.90;;;;;;6181397;23;20021;-84
2021/04/28 06:10:15;;;;;;;5.03;2.92;;;5.70;99.90;;;;;;6154427;23;20490;-84
2021/04/28 06:12:41;;;;;;;3.78;2.90;;;5.80;99.90;;;;;;6154670;23;20440;-84
2021/04/28 06:15:08;;;;;;;4.10;2.47;;;5.80;99.90;;;;;;6180521;23;20435;-84
2021/04/28 06:17:34;;;;;;;4.03;2.67;;;5.90;99.90;;;;;;6180828;23;20095;-84
2021/04/28 06:20:01;;;;;;;5.32;2.70;;;6.00;99.90;;;;;;6179920;23;20448;-84
2021/04/28 06:22:26;;;;;;;5.63;2.80;;;5.90;99.90;;;;;;6181354;23;20028;-83
2021/04/28 06:24:52;;;;;;;6.88;2.85;;;6.00;99.90;;;;;;6154291;23;20161;-84
2021/04/28 06:27:18;;;;;;;4.43;3.00;;;6.10;99.90;;;;;;6154693;23;20017;-84
2021/04/28 06:29:45;;;;;;;4.50;2.83;;;6.10;99.90;;;;;;6155320;23;20021;-83
2021/04/28 06:32:10;;;;;;;6.25;2.95;;;6.20;99.90;;;;;;6129741;23;20017;-85
2021/04/28 06:34:36;;;;;;;3.97;2.80;;;6.20;99.90;;;;;;6181305;23;20112;-85
2021/04/28 06:37:02;;;;;;;3.05;2.78;;;6.30;99.90;;;;;;6180087;23;20100;-83
2021/04/28 06:39:28;;;;;;;4.07;2.83;;;6.30;99.90;;;;;;6155314;23;20424;-84
2021/04/28 06:41:54;;;;;;;3.75;2.97;;;6.40;99.90;;;;;;6181086;23;20047;-83
2021/04/28 06:44:19;;;;;;;4.20;3.05;;;6.40;99.90;;;;;;6154366;23;20021;-84
2021/04/28 06:46:45;;;;;;;6.43;3.20;;;6.40;99.90;;;;;;6180861;23;20400;-85
2021/04/28 06:49:11;;;;;;;3.97;2.58;;;6.50;99.90;;;;;;6159685;23;20017;-84
2021/04/28 06:51:37;;;;;;;9.27;2.80;;;6.50;99.90;;;;;;6179310;23;20076;-85
2021/04/28 06:54:03;;;;;;;4.20;2.55;;;6.60;99.90;;;;;;6178374;23;20041;-85
2021/04/28 06:56:30;;;;;;;7.45;3.58;;;6.60;99.90;;;;;;6178747;23;20017;-84
2021/04/28 06:58:56;;;;;;;5.05;3.40;;;6.60;99.90;;;;;;6179959;23;20075;-84
2021/04/28 07:01:22;;;;;;;3.65;2.70;;;6.80;99.90;;;;;;6180732;23;20017;-83
2021/04/28 07:03:48;;;;;;;4.35;2.70;;;6.80;99.90;;;;;;6181216;23;20192;-83
2021/04/28 07:06:14;;;;;;;4.93;2.90;;;6.90;99.90;;;;;;6179422;23;20032;-83
2021/04/28 07:08:40;;;;;;;3.38;3.08;;;6.90;99.90;;;;;;6180706;23;20017;-84
2021/04/28 07:11:07;;;;;;;5.20;3.55;;;7.00;99.90;;;;;;6178944;23;20027;-83
2021/04/28 07:13:33;;;;;;;5.75;3.10;;;7.10;99.90;;;;;;6181098;23;20470;-83
2021/04/28 07:15:59;;;;;;;5.43;3.42;;;7.10;99.90;;;;;;6179867;23;20017;-84
2021/04/28 07:18:25;;;;;;;4.18;3.55;;;7.20;99.90;;;;;;6181044;23;20021;-84
2021/04/28 07:20:50;;;;;;;3.75;3.08;;;7.30;99.90;;;;;;6181235;23;20027;-84
2021/04/28 07:23:16;;;;;;;8.00;3.38;;;7.30;99.90;;;;;;6179713;23;20021;-83
2021/04/28 07:25:42;;;;;;;4.40;3.13;;;7.40;99.90;;;;;;6180241;23;20340;-84
2021/04/28 07:28:08;;;;;;;5.65;3.00;;;7.50;99.90;;;;;;6178636;23;20021;-84
2021/04/28 07:30:36;;;;;;;6.13;3.20;;;7.50;99.90;;;;;;6179058;23;20459;-84
2021/04/28 07:33:02;;;;;;;5.38;3.20;;;7.70;99.90;;;;;;6178356;23;20013;-84
2021/04/28 07:35:28;;;;;;;6.18;3.13;;;7.80;99.90;;;;;;6180753;23;20013;-84
2021/04/28 07:37:54;;;;;;;6.32;3.90;;;7.80;99.90;;;;;;6180743;23;20067;-84
2021/04/28 07:40:22;;;;;;;4.78;2.95;;;7.90;99.90;;;;;;6153093;23;20020;-87
2021/04/28 07:42:51;;;;;;;5.82;3.30;;;8.00;99.90;;;;;;6180559;23;20478;-86
2021/04/28 07:45:18;;;;;;;7.72;3.65;;;8.10;99.90;;;;;;6180258;23;20059;-85
2021/04/28 07:47:44;;;;;;;7.78;3.40;;;8.20;99.90;;;;;;6183177;23;20029;-87
2021/04/28 07:50:11;;;;;;;7.38;3.03;;;8.20;99.90;;;;;;6180070;23;20021;-88
2021/04/28 07:52:37;;;;;;;9.75;2.97;;;8.40;99.90;;;;;;6184167;23;20435;-88
2021/04/28 07:55:04;;;;;;;4.05;3.25;;;8.40;99.90;;;;;;6179487;23;20024;-84
2021/04/28 07:57:29;;;;;;;5.68;3.55;;;8.50;99.90;;;;;;6179201;23;20334;-85
2021/04/28 07:59:55;;;;;;;5.97;3.05;;;8.60;99.90;;;;;;6180140;23;20023;-84
2021/04/28 08:02:21;;;;;;;5.55;3.20;;;8.70;99.90;;;;;;6178940;23;20009;-85
2021/04/28 08:04:47;;;;;;;5.25;2.95;;;8.80;99.90;;;;;;6179969;23;20092;-86
2021/04/28 08:07:13;;;;;;;4.85;3.20;;;8.90;99.90;;;;;;6152459;23;20021;-86
2021/04/28 08:09:40;;;;;;;7.05;3.00;;;9.00;99.90;;;;;;6180302;23;20059;-86
2021/04/28 08:12:07;;;;;;;10.32;3.55;;;9.10;99.90;;;;;;6178900;23;20025;-84
2021/04/28 08:14:32;;;;;;;6.80;3.40;;;9.10;99.90;;;;;;6178761;23;20744;-86
2021/04/28 08:16:58;;;;;;;6.97;3.85;;;9.20;99.90;;;;;;6179853;23;20028;-86
2021/04/28 08:19:25;;;;;;;7.00;3.20;;;9.30;99.90;;;;;;6180113;23;20025;-85
2021/04/28 08:21:56;;;;;;;6.82;4.00;;;9.40;99.90;;;;;;6154626;23;20383;-87
2021/04/28 08:24:22;;;;;;;;;;;9.50;99.90;;;;;;6155109;23;20405;-88
2021/04/28 08:26:48;;;;;;;7.38;4.18;;;9.60;99.90;;;;;;6182264;23;19920;-88
2021/04/28 08:29:14;;;;;;;6.38;3.30;;;9.70;99.90;;;;;;6154741;23;20459;-87
2021/04/28 08:31:41;;;;;;;13.82;3.78;;;9.80;99.90;;;;;;6156272;23;20457;-88
2021/04/28 08:34:07;;;;;;;7.25;3.50;;;9.80;99.90;;;;;;6181725;23;20020;-86
2021/04/28 08:36:34;;;;;;;7.45;3.42;;;9.90;99.90;;;;;;6131419;23;20021;-89
2021/04/28 08:39:03;;;;;;;5.78;3.42;;;10.00;99.90;;;;;;6181850;23;20215;-88
2021/04/28 08:41:29;;;;;;;17.90;3.60;;;10.10;99.90;;;;;;6181246;23;20332;-88
2021/04/28 08:43:55;;;;;;;8.43;3.50;;;10.20;99.90;;;;;;6182039;23;20021;-87
2021/04/28 08:46:20;;;;;;;12.18;3.22;;;10.30;99.90;;;;;;6154335;23;20024;-87
2021/04/28 08:48:46;;;;;;;10.82;3.85;;;10.40;99.90;;;;;;6156501;23;20021;-88
2021/04/28 08:51:17;;;;;;;6.20;3.58;;;10.50;99.90;;;;;;6188404;23;20048;-87
2021/04/28 08:53:43;;;;;;;5.50;3.47;;;10.60;99.90;;;;;;6191476;23;20080;-88
2021/04/28 08:56:10;;;;;;;11.43;3.72;;;10.70;99.90;;;;;;6153965;23;20021;-87
2021/04/28 08:58:36;;;;;;;9.38;4.25;;;10.80;99.90;;;;;;6180705;23;20020;-88
2021/04/28 09:01:04;;;;;;;11.35;4.18;;;10.90;99.90;;;;;;6181959;23;20021;-88
2021/04/28 09:03:45;;;;;;;8.90;4.07;;;11.00;99.90;;;;;;6179342;23;20017;-88
2021/04/28 09:06:28;;;;;;;11.45;3.90;;;11.10;99.90;;;;;;6180576;23;20040;-90
2021/04/28 09:08:55;;;;;;;9.95;4.05;;;11.20;99.20;;;;;;6191811;23;20024;-89
2021/04/28 09:11:41;;;;;;;6.53;3.92;;;11.30;98.90;;;;;;6180978;23;20025;-88
2021/04/28 09:14:12;;;;;;;5.03;3.50;;;11.40;98.40;;;;;;6155086;23;20308;-86
2021/04/28 09:16:43;;;;;;;11.60;4.18;;;11.50;98.90;;;;;;6180082;23;20017;-89
2021/04/28 09:19:21;;;;;;;6.07;4.05;;;11.60;99.10;;;;;;6185718;23;20027;-87
2021/04/28 09:22:03;;;;;;;14.77;3.97;;;11.70;98.00;;;;;;6180197;23;20419;-89
2021/04/28 09:24:51;;;;;;;13.40;4.22;;;11.80;99.70;;;;;;6189387;23;20017;-89
2021/04/28 09:27:45;;;;;;;10.43;4.25;;;11.90;98.00;;;;;;6190749;23;20115;-88
2021/04/28 09:30:26;;;;;;;7.53;3.70;;;12.00;99.00;;;;;;6162420;23;20103;-87
2021/04/28 09:33:02;;;;;;;5.53;3.35;;;12.10;97.40;;;;;;6179486;23;20028;-88
2021/04/28 09:35:28;;;;;;;9.50;4.45;;;12.30;94.60;;;;;;6179183;23;20052;-90
2021/04/28 09:38:01;;;;;;;14.43;4.10;;;12.40;96.20;;;;;;6181496;23;20021;-89
2021/04/28 09:40:55;;;;;;;8.15;4.10;;;12.40;94.10;;;;;;6180415;23;20059;-89
2021/04/28 09:43:22;;;;;;;5.97;3.67;;;12.50;97.10;;;;;;6190412;23;20099;-89
2021/04/28 09:45:51;;;;;;;5.22;3.90;;;12.60;96.00;;;;;;6181867;23;20445;-90
2021/04/28 09:48:18;;;;;;;6.43;3.67;;;12.70;93.60;;;;;;6180383;23;20510;-89
2021/04/28 09:50:44;;;;;;;7.07;3.85;;;12.80;95.20;;;;;;6181600;23;20078;-90
2021/04/28 09:53:25;;;;;;;9.80;4.28;;;12.90;93.30;;;;;;6181203;23;20041;-88
2021/04/28 09:55:51;;;;;;;5.38;4.20;;;13.00;94.90;;;;;;6191108;23;20013;-88
2021/04/28 09:58:17;;;;;;;4.45;3.60;;;13.10;93.90;;;;;;6180038;23;20021;-87
2021/04/28 10:00:57;;;;;;;5.20;3.67;;;13.10;93.40;;;;;;6154852;23;20518;-87
2021/04/28 10:03:57;;;;;;;8.45;3.83;;;13.20;93.60;;;;;;6188688;23;20017;-89
2021/04/28 10:06:59;;;;;;;5.75;3.35;;;13.30;91.60;;;;;;6159853;23;20028;-89
2021/04/28 10:09:31;;;;;;;5.57;3.55;;;13.40;87.70;;;;;;6087833;23;20022;-88
2021/04/28 10:12:14;;;;;;;9.32;4.03;;;13.50;86.30;;;;;;6167473;23;20470;-87
2021/04/28 10:14:41;;;;;;;5.10;3.65;;;13.50;83.00;;;;;;6190142;23;20017;-88
2021/04/28 10:17:08;;;;;;;10.38;3.97;;;13.60;91.20;;;;;;6181326;23;20511;-88
2021/04/28 10:19:36;;;;;;;13.05;3.80;;;13.70;79.90;;;;;;6179941;23;20056;-88
2021/04/28 10:22:04;;;;;;;14.38;4.00;;;13.80;78.80;;;;;;6181236;23;20021;-88
2021/04/28 10:24:31;;;;;;;4.28;3.33;;;13.90;81.80;;;;;;6180400;23;20018;-88
2021/04/28 10:26:57;;;;;;;10.20;4.10;;;13.90;86.80;;;;;;6179770;23;20021;-88
2021/04/28 10:29:25;;;;;;;4.38;3.53;;;14.00;86.30;;;;;;6180463;23;20024;-88
2021/04/28 10:31:52;;;;;;;8.55;3.75;;;14.10;87.00;;;;;;6181234;23;20451;-88
2021/04/28 10:34:30;;;;;;;3.85;3.42;;;14.20;83.80;;;;;;6178868;23;20013;-87
2021/04/28 10:36:57;;;;;;;4.32;3.42;;;14.30;74.20;;;;;;6190978;23;20023;-90
2021/04/28 10:39:27;;;;;;;5.40;3.67;;;14.30;83.90;;;;;;6180249;23;20017;-87
2021/04/28 10:41:56;;;;;;;18.75;4.38;;;14.40;86.10;;;;;;6181219;23;20542;-88
2021/04/28 10:44:42;;;;;;;7.90;4.13;;;14.40;81.20;;;;;;6174622;23;20099;-88
2021/04/28 10:47:13;;;;;;;7.00;3.55;;;14.50;82.00;;;;;;6164829;23;20075;-88
2021/04/28 10:50:02;;;;;;;7.45;3.45;;;14.50;82.60;;;;;;6182447;23;20032;-89
2021/04/28 10:52:42;;;;;;;9.52;3.50;;;14.60;75.10;;;;;;6189763;23;20154;-88
2021/04/28 10:55:40;;;;;;;7.20;3.30;;;14.60;81.80;;;;;;6190727;23;20021;-87
2021/04/28 10:58:26;;;;;;;7.55;3.30;;;14.80;82.80;;;;;;6173112;23;20052;-89
2021/04/28 11:01:04;;;;;;;5.97;2.92;;;14.80;76.60;;;;;;6180455;23;20029;-87
2021/04/28 11:03:38;;;;;;;9.02;3.70;;;14.90;83.10;;;;;;6179418;23;20024;-88
2021/04/28 11:06:22;;;;;;;6.05;3.17;;;15.00;88.30;;;;;;6181688;23;20024;-88
2021/04/28 11:09:04;;;;;;;5.70;3.33;;;15.10;82.70;;;;;;6154168;23;20024;-88
2021/04/28 11:11:33;;;;;;;7.30;3.58;;;15.10;84.70;;;;;;6163222;23;20027;-88
2021/04/28 11:14:20;;;;;;;3.97;3.03;;;15.20;84.40;;;;;;6180488;23;20072;-89
2021/04/28 11:16:48;;;;;;;5.05;3.17;;;15.20;77.40;;;;;;6190567;23;20088;-88
2021/04/28 11:19:32;;;;;;;8.50;3.60;;;15.30;77.90;;;;;;6179447;23;20514;-88
2021/04/28 11:22:20;;;;;;;4.88;3.53;;;15.40;76.50;;;;;;6179762;23;20017;-88
2021/04/28 11:25:09;;;;;;;7.57;3.95;;;15.40;78.30;;;;;;6190302;23;20079;-87
2021/04/28 11:27:45;;;;;;;5.70;3.60;;;15.50;80.60;;;;;;6162835;23;20029;-88
2021/04/28 11:30:59;;;;;;;19.33;4.30;;;15.50;78.20;;;;;;6180738;23;20021;-88
2021/04/28 11:33:29;;;;;;;9.45;4.03;;;15.60;75.10;;;;;;6134858;23;20107;-87
2021/04/28 11:35:55;;;;;;;19.85;4.57;;;15.60;72.70;;;;;;6189826;23;20347;-88
2021/04/28 11:38:29;;;;;;;4.75;3.83;;;15.60;71.10;;;;;;6153725;23;20103;-86
2021/04/28 11:41:00;;;;;;;8.50;3.65;;;15.60;73.80;;;;;;6153993;23;20021;-89
2021/04/28 11:43:28;;;;;;;4.25;3.88;;;15.70;76.30;;;;;;6189586;23;20021;-89
2021/04/28 11:46:05;;;;;;;7.57;4.22;;;15.60;72.40;;;;;;6180258;23;20104;-87
2021/04/28 11:48:32;;;;;;;7.03;4.50;;;15.60;76.20;;;;;;6188850;23;20013;-89
2021/04/28 11:51:08;;;;;;;11.93;4.50;;;15.70;70.70;;;;;;6179698;23;20021;-88
2021/04/28 11:53:49;;;;;;;8.65;4.63;;;15.80;66.90;;;;;;6188964;23;20017;-88
2021/04/28 11:56:46;;;;;;;14.48;4.57;;;15.80;73.00;;;;;;6191007;23;20029;-89
2021/04/28 11:59:26;;;;;;;3.85;3.50;;;15.80;73.80;;;;;;6182488;23;20019;-89
2021/04/28 12:01:57;;;;;;;5.28;3.70;;;16.00;84.60;;;;;;6182039;23;20025;-88
2021/04/28 12:04:29;;;;;;;14.82;4.13;;;16.10;83.90;;;;;;6182358;23;20041;-86
2021/04/28 12:06:56;;;;;;;6.93;4.40;;;16.20;80.20;;;;;;6182601;23;20068;-89
2021/04/28 12:09:49;;;;;;;8.15;4.07;;;16.30;75.90;;;;;;6182978;23;20381;-88
2021/04/28 12:12:28;;;;;;;5.47;4.20;;;16.40;80.00;;;;;;6191987;23;20017;-89
2021/04/28 12:15:12;;;;;;;6.45;4.38;;;16.50;63.20;;;;;;6181904;23;20017;-88
2021/04/28 12:17:39;;;;;;;6.63;4.30;;;16.60;69.50;;;;;;6189257;23;20351;-88
2021/04/28 12:20:12;;;;;;;4.90;4.20;;;16.70;74.00;;;;;;6182139;23;20027;-87
2021/04/28 12:22:38;;;;;;;8.00;4.15;;;17.00;65.40;;;;;;6180877;23;20025;-87
2021/04/28 12:25:06;;;;;;;6.30;3.75;;;17.10;67.30;;;;;;6156213;23;20505;-88
2021/04/28 12:27:39;;;;;;;9.90;4.07;;;17.20;73.70;;;;;;6181532;23;20088;-89
2021/04/28 12:30:10;;;;;;;22.55;5.90;;;17.40;74.50;;;;;;6192545;23;20021;-88
2021/04/28 12:32:39;;;;;;;5.53;4.20;;;17.60;69.70;;;;;;6181129;23;20017;-88
2021/04/28 12:35:24;;;;;;;4.95;3.38;;;17.90;72.10;;;;;;6182236;23;20506;-88
2021/04/28 12:38:12;;;;;;;14.38;3.97;;;18.20;73.80;;;;;;6164993;23;20104;-88
2021/04/28 12:40:41;;;;;;;10.38;4.03;;;18.60;63.00;;;;;;6191126;23;20052;-89
2021/04/28 12:43:16;;;;;;;4.93;3.53;;;18.90;63.40;;;;;;6182235;23;20021;-90
2021/04/28 12:45:42;;;;;;;3.97;3.50;;;19.30;60.20;;;;;;6190915;23;20049;-88
2021/04/28 12:48:20;;;;;;;12.65;3.72;;;19.60;56.60;;;;;;6182393;23;20016;-90
2021/04/28 12:50:49;;;;;;;6.03;3.50;;;19.90;60.00;;;;;;6182154;23;20041;-88
2021/04/28 12:53:20;;;;;;;4.53;3.78;;;20.20;62.50;;;;;;6181546;23;20027;-88
2021/04/28 12:55:48;;;;;;;6.63;4.05;;;20.10;58.20;;;;;;6150431;23;20044;-88
2021/04/28 12:58:16;;;;;;;3.90;3.60;;;20.20;56.20;;;;;;6155584;23;20095;-89
2021/04/28 13:00:56;;;;;;;8.40;3.63;;;20.20;53.20;;;;;;6179250;23;20088;-86
2021/04/28 13:03:26;;;;;;;5.90;3.38;;;20.50;53.80;;;;;;6190491;23;20028;-88
2021/04/28 13:06:00;;;;;;;12.15;4.30;;;20.90;48.40;;;;;;6181483;23;20086;-88